createdAt,value
2022-11-02T00:03:08.670Z,8.68
2022-11-02T00:08:08.221Z,8.58
2022-11-02T00:13:08.207Z,8.57
2022-11-02T00:18:08.092Z,8.63
2022-11-02T00:23:08.068Z,8.55
2022-11-02T00:28:07.896Z,8.57
2022-11-02T00:33:07.839Z,8.55
2022-11-02T00:38:08.041Z,8.36
2022-11-02T00:43:07.730Z,8.54
2022-11-02T00:48:08.020Z,8.45
2022-11-02T00:53:07.643Z,8.44
2022-11-02T00:58:07.811Z,8.28
2022-11-02T01:03:07.428Z,8.18
2022-11-02T01:08:07.515Z,8.21
2022-11-02T01:13:07.333Z,7.99
2022-11-02T01:18:07.517Z,8.04
2022-11-02T01:23:07.166Z,8.10
2022-11-02T01:28:07.324Z,8.04
2022-11-02T01:33:07.013Z,8.07
2022-11-02T01:38:07.250Z,8.10
2022-11-02T01:43:06.912Z,8.08
2022-11-02T01:48:07.047Z,8.04
2022-11-02T01:53:06.775Z,7.97
2022-11-02T01:58:07.060Z,7.78
2022-11-02T02:03:06.614Z,7.78
2022-11-02T02:08:07.055Z,7.79
2022-11-02T02:13:06.493Z,7.75
2022-11-02T02:18:06.743Z,7.85
2022-11-02T02:23:06.390Z,7.85
2022-11-02T02:28:06.679Z,7.81
2022-11-02T02:33:06.277Z,8.04
2022-11-02T02:38:06.579Z,7.96
2022-11-02T02:43:06.088Z,7.93
2022-11-02T02:48:08.097Z,7.93
2022-11-02T02:53:08.880Z,7.90
2022-11-02T02:58:06.191Z,7.74
2022-11-02T03:03:05.867Z,7.69
2022-11-02T03:08:06.102Z,7.56
2022-11-02T03:13:05.732Z,7.78
2022-11-02T03:18:05.967Z,7.66
2022-11-02T03:23:05.589Z,7.66
2022-11-02T03:28:05.958Z,7.58
2022-11-02T03:33:05.468Z,7.56
2022-11-02T03:38:05.672Z,7.63
2022-11-02T03:43:05.378Z,7.62
2022-11-02T03:48:05.465Z,7.56
2022-11-02T03:53:05.193Z,7.69
2022-11-02T03:58:05.394Z,7.67
2022-11-02T04:03:05.074Z,7.56
2022-11-02T04:08:05.205Z,7.37
2022-11-02T04:13:04.931Z,7.35
2022-11-02T04:18:05.106Z,7.41
2022-11-02T04:23:04.826Z,7.40
2022-11-02T04:28:04.948Z,7.45
2022-11-02T04:33:04.708Z,7.31
2022-11-02T04:38:04.949Z,7.31
2022-11-02T04:43:04.527Z,7.17
2022-11-02T04:48:04.780Z,7.24
2022-11-02T04:53:04.410Z,7.32
2022-11-02T04:58:04.729Z,7.27
2022-11-02T05:03:08.100Z,7.32
2022-11-02T05:08:05.556Z,7.29
2022-11-02T05:13:04.161Z,7.07
2022-11-02T05:18:04.491Z,6.91
2022-11-02T05:23:04.347Z,6.81
2022-11-02T05:28:03.985Z,7.05
2022-11-02T05:33:04.176Z,6.91
2022-11-02T05:38:03.804Z,6.80
2022-11-02T05:43:04.115Z,6.99
2022-11-02T05:48:03.699Z,6.73
2022-11-02T05:53:04.128Z,6.84
2022-11-02T05:58:03.565Z,6.80
2022-11-02T06:03:03.909Z,6.98
2022-11-02T06:08:07.297Z,6.84
2022-11-02T06:13:03.773Z,6.90
2022-11-02T06:18:03.289Z,7.05
2022-11-02T06:23:03.913Z,7.13
2022-11-02T06:28:03.181Z,7.17
2022-11-02T06:33:06.926Z,7.13
2022-11-02T06:38:03.047Z,7.27
2022-11-02T06:43:15.897Z,7.82
2022-11-02T06:48:03.969Z,8.50
2022-11-02T06:53:03.325Z,8.86
2022-11-02T06:58:02.774Z,9.34
2022-11-02T07:03:03.014Z,9.46
2022-11-02T07:08:02.660Z,9.38
2022-11-02T07:13:02.866Z,9.28
2022-11-02T07:18:02.509Z,8.97
2022-11-02T07:23:02.624Z,8.79
2022-11-02T07:28:02.409Z,8.94
2022-11-02T07:33:02.670Z,9.43
2022-11-02T07:38:02.249Z,9.93
2022-11-02T07:43:02.452Z,10.33
2022-11-02T07:48:02.146Z,10.62
2022-11-02T07:53:02.296Z,11.34
2022-11-02T07:58:02.218Z,11.34
2022-11-02T08:03:02.075Z,11.61
2022-11-02T08:08:02.195Z,11.83
2022-11-02T08:13:01.816Z,11.77
2022-11-02T08:18:02.125Z,11.80
2022-11-02T08:23:01.676Z,12.02
2022-11-02T08:28:01.785Z,12.23
2022-11-02T08:33:01.576Z,12.48
2022-11-02T08:38:01.694Z,12.75
2022-11-02T08:43:01.451Z,12.89
2022-11-02T08:48:01.506Z,13.03
2022-11-02T08:53:01.304Z,13.37
2022-11-02T08:58:01.272Z,13.70
2022-11-02T09:03:01.153Z,14.13
2022-11-02T09:08:01.117Z,14.61
2022-11-02T09:13:00.980Z,15.02
2022-11-02T09:18:00.968Z,15.23
2022-11-02T09:23:00.867Z,15.43
2022-11-02T09:28:00.826Z,15.42
2022-11-02T09:33:00.754Z,15.66
2022-11-02T09:38:00.675Z,15.92
2022-11-02T09:43:00.602Z,16.18
2022-11-02T09:48:16.433Z,16.41
2022-11-02T09:53:01.811Z,16.58
2022-11-02T09:58:00.409Z,16.53
2022-11-02T10:03:00.402Z,16.41
2022-11-02T10:08:00.402Z,16.50
2022-11-02T10:13:00.214Z,16.53
2022-11-02T10:18:00.171Z,16.41
2022-11-02T10:23:00.109Z,16.27
2022-11-02T10:28:00.039Z,16.70
2022-11-02T10:32:59.951Z,17.15
2022-11-02T10:37:59.867Z,17.47
2022-11-02T10:42:59.828Z,17.69
2022-11-02T10:47:59.759Z,17.87
2022-11-02T10:53:20.217Z,17.54
2022-11-02T10:58:00.629Z,17.14
2022-11-02T11:02:59.587Z,17.06
2022-11-02T11:07:59.513Z,16.96
2022-11-02T11:12:59.431Z,16.83
2022-11-02T11:23:00.309Z,16.59
2022-11-02T11:27:59.244Z,16.55
2022-11-02T11:32:59.381Z,16.60
2022-11-02T11:37:59.391Z,16.33
2022-11-02T11:43:02.306Z,16.27
2022-11-02T11:47:58.975Z,16.31
2022-11-02T11:52:58.920Z,15.94
2022-11-02T11:57:58.855Z,15.76
2022-11-02T12:02:58.829Z,15.75
2022-11-02T12:07:58.725Z,16.00
2022-11-02T12:12:58.665Z,16.16
2022-11-02T12:17:58.624Z,16.15
2022-11-02T12:22:58.517Z,15.96
2022-11-02T12:27:58.467Z,15.96
2022-11-02T12:32:58.396Z,16.11
2022-11-02T12:37:58.314Z,16.26
2022-11-02T12:42:58.243Z,16.70
2022-11-02T12:47:58.390Z,16.75
2022-11-02T12:52:58.134Z,16.65
2022-11-02T12:57:58.029Z,16.35
2022-11-02T13:02:57.958Z,16.03
2022-11-02T13:07:57.918Z,15.92
2022-11-02T13:12:57.860Z,15.88
2022-11-02T13:17:57.785Z,15.84
2022-11-02T13:22:57.718Z,15.82
2022-11-02T13:28:02.688Z,15.82
2022-11-02T13:32:58.645Z,15.64
2022-11-02T13:37:58.470Z,15.59
2022-11-02T13:42:57.560Z,15.43
2022-11-02T13:47:57.385Z,15.33
2022-11-02T13:52:57.337Z,15.27
2022-11-02T13:57:57.293Z,15.17
2022-11-02T14:02:57.254Z,15.05
2022-11-02T14:07:57.125Z,15.06
2022-11-02T14:12:57.903Z,15.05
2022-11-02T14:17:57.015Z,15.02
2022-11-02T14:22:56.966Z,14.94
2022-11-02T14:27:56.877Z,14.86
2022-11-02T14:32:56.835Z,14.83
2022-11-02T14:37:57.077Z,14.84
2022-11-02T14:42:56.888Z,14.71
2022-11-02T14:47:56.554Z,14.61
2022-11-02T14:52:56.506Z,14.50
2022-11-02T14:57:56.443Z,14.49
2022-11-02T15:02:56.444Z,14.35
2022-11-02T15:07:56.332Z,14.27
2022-11-02T15:12:56.289Z,14.13
2022-11-02T15:17:56.333Z,13.99
2022-11-02T15:22:56.217Z,13.80
2022-11-02T15:27:56.048Z,13.47
2022-11-02T15:33:01.259Z,13.43
2022-11-02T15:38:16.535Z,13.25
2022-11-02T15:42:56.905Z,13.18
2022-11-02T15:47:55.803Z,13.04
2022-11-02T15:53:21.632Z,12.87
2022-11-02T15:57:56.781Z,12.85
2022-11-02T16:02:55.711Z,12.81
2022-11-02T16:08:11.522Z,12.82
2022-11-02T16:12:56.459Z,12.78
2022-11-02T16:17:55.400Z,12.66
2022-11-02T16:22:55.329Z,12.59
2022-11-02T16:27:55.273Z,12.38
2022-11-02T16:32:55.253Z,12.21
2022-11-02T16:37:55.147Z,12.31
2022-11-02T16:42:55.105Z,12.26
2022-11-02T16:47:55.023Z,11.90
2022-11-02T16:52:55.025Z,11.87
2022-11-02T16:57:54.864Z,12.20
2022-11-02T17:02:54.861Z,12.37
2022-11-02T17:07:54.811Z,12.38
2022-11-02T17:12:55.044Z,12.31
2022-11-02T17:17:54.785Z,12.15
2022-11-02T17:22:54.832Z,11.96
2022-11-02T17:27:54.777Z,11.74
2022-11-02T17:32:56.664Z,11.62
2022-11-02T17:37:54.575Z,11.43
2022-11-02T17:42:54.320Z,11.06
2022-11-02T17:47:54.425Z,10.74
2022-11-02T17:52:54.145Z,10.95
2022-11-02T17:57:54.169Z,10.65
2022-11-02T18:02:54.163Z,10.36
2022-11-02T18:07:54.041Z,10.42
2022-11-02T18:12:54.177Z,10.18
2022-11-02T18:17:53.829Z,9.94
2022-11-02T18:22:53.824Z,9.81
2022-11-02T18:27:53.690Z,10.19
2022-11-02T18:32:53.623Z,10.46
2022-11-02T18:37:53.585Z,10.18
2022-11-02T18:42:53.546Z,9.71
2022-11-02T18:47:53.441Z,9.50
2022-11-02T18:52:53.656Z,9.45
2022-11-02T18:57:53.269Z,9.13
2022-11-02T19:02:53.224Z,9.49
2022-11-02T19:07:53.163Z,10.33
2022-11-02T19:12:53.229Z,10.68
2022-11-02T19:17:53.013Z,9.96
2022-11-02T19:22:54.632Z,9.43
2022-11-02T19:27:52.890Z,9.01
2022-11-02T19:32:52.940Z,8.76
2022-11-02T19:37:53.139Z,8.54
2022-11-02T19:42:52.829Z,8.44
2022-11-02T19:47:52.679Z,8.45
2022-11-02T19:52:52.604Z,8.48
2022-11-02T19:57:52.518Z,8.32
2022-11-02T20:02:52.697Z,8.30
2022-11-02T20:07:52.459Z,8.02
2022-11-02T20:12:52.328Z,7.96
2022-11-02T20:18:17.618Z,7.93
2022-11-02T20:22:53.389Z,7.78
2022-11-02T20:27:52.212Z,7.90
2022-11-02T20:32:52.159Z,7.93
2022-11-02T20:37:51.940Z,7.75
2022-11-02T20:42:52.042Z,7.55
2022-11-02T20:47:51.922Z,7.42
2022-11-02T20:52:51.748Z,7.41
2022-11-02T20:57:51.761Z,7.38
2022-11-02T21:02:51.834Z,7.45
2022-11-02T21:07:51.536Z,7.32
2022-11-02T21:12:51.592Z,7.17
2022-11-02T21:17:51.485Z,7.09
2022-11-02T21:22:51.407Z,7.12
2022-11-02T21:27:51.517Z,7.08
2022-11-02T21:32:51.325Z,6.90
2022-11-02T21:37:51.169Z,6.95
2022-11-02T21:42:51.168Z,7.01
2022-11-02T21:47:51.100Z,7.01
2022-11-02T21:52:51.022Z,7.12
2022-11-02T21:57:50.945Z,7.02
2022-11-02T22:02:50.881Z,6.84
2022-11-02T22:07:50.796Z,6.68
2022-11-02T22:12:50.725Z,6.69
2022-11-02T22:17:50.667Z,6.72
2022-11-02T22:22:50.642Z,6.62
2022-11-02T22:27:50.565Z,6.63
2022-11-02T22:32:50.481Z,6.68
2022-11-02T22:37:50.397Z,6.61
2022-11-02T22:42:50.355Z,6.51
2022-11-02T22:47:50.296Z,6.43
2022-11-02T22:52:50.196Z,6.30
2022-11-02T22:57:50.420Z,6.25
2022-11-02T23:02:50.129Z,6.26
2022-11-02T23:07:50.011Z,6.16
2022-11-02T23:12:49.952Z,6.10
2022-11-02T23:17:49.879Z,6.01
2022-11-02T23:22:49.807Z,6.01
2022-11-02T23:27:49.737Z,5.91
2022-11-02T23:32:49.667Z,5.89
2022-11-02T23:37:49.608Z,5.82
2022-11-02T23:42:49.559Z,5.63
2022-11-02T23:47:49.478Z,5.55
2022-11-02T23:52:49.442Z,5.41
2022-11-02T23:57:49.353Z,5.40
